»·PEaware :: N796A KSNA-KSBA

N796A :: KSNA-KSBA

FLIGHT INFORMATION

Flight Status: Arrived
Operator: Privately registered:
United States
More flights under this callsign
Pilot: Matt G. (13672)
Aircraft: CESSNA 340
(C340)
More flights by this aircraft type
Origin: KSNA John Wayne-Orange Co
United States
Destination: KSBA Santa Barbara Mun
United States
More flights between these airports :: More routes between these airports
Route: +SLI V23 LAX V299 VTU KWANG
File this flight plan on PilotEdge
Remarks: CSTP21
Altitude:
(Current/Filed)
6,000ft
Speed:
(Current/Filed)
240kts
Departed: 10-Sep-18 12:11 PM
Arrived: 10-Sep-18 12:53 PM
Distance/Time
Traveled:
108nm/0:42
Distance/Time
To Go:
Arrived

Flight Plot

Page will automatically refresh every two minutes.


Map Options




Map Legend


Flown Route
Filed Route
Departure Airport
Arrival Airport
Navaid (VOR, NDB)
Fix

Horizontal Profiles

Position Reports

Time Latitude Longitude Heading Altitude Ground
Speed
10-Sep-18 11:54 33.672357 -117.866915 210 60ft 0kts
10-Sep-18 11:55 33.672357 -117.866915 210 60ft 0kts
10-Sep-18 11:56 33.672357 -117.866915 210 60ft 0kts
10-Sep-18 11:57 33.672357 -117.866915 210 60ft 0kts
10-Sep-18 11:58 33.672357 -117.866915 210 60ft 0kts
10-Sep-18 11:59 33.672357 -117.866915 210 60ft 0kts
10-Sep-18 12:00 33.672357 -117.866915 210 60ft 0kts
10-Sep-18 12:01 33.672357 -117.866915 210 60ft 0kts
10-Sep-18 12:02 33.672357 -117.866915 210 60ft 0kts
10-Sep-18 12:03 33.672357 -117.866915 210 60ft 0kts
10-Sep-18 12:05 33.672357 -117.866915 210 60ft 0kts
10-Sep-18 12:06 33.673986 -117.867183 22 60ft 13kts
10-Sep-18 12:07 33.678168 -117.864522 27 60ft 17kts
10-Sep-18 12:08 33.679976 -117.863663 300 60ft 0kts
10-Sep-18 12:09 33.679976 -117.863663 300 60ft 0kts
10-Sep-18 12:10 33.679976 -117.863663 300 60ft 0kts
10-Sep-18 12:11 33.679976 -117.863663 300 60ft 0kts
10-Sep-18 12:12 33.679976 -117.863663 300 60ft 0kts
10-Sep-18 12:13 33.671281 -117.870076 209 193ft 100kts
10-Sep-18 12:14 33.656685 -117.890539 230 1058ft 125kts
10-Sep-18 12:15 33.645660 -117.908737 230 1874ft 126kts
10-Sep-18 12:16 33.627055 -117.939506 230 3204ft 127kts
10-Sep-18 12:17 33.607552 -117.974169 258 4635ft 132kts
10-Sep-18 12:18 33.627478 -118.011314 308 6087ft 137kts
10-Sep-18 12:19 33.653988 -118.048216 306 6601ft 177kts
10-Sep-18 12:20 33.688929 -118.095078 309 5981ft 198kts
10-Sep-18 12:21 33.725337 -118.144965 309 5951ft 196kts
10-Sep-18 12:22 33.759301 -118.191758 308 5961ft 188kts
10-Sep-18 12:23 33.791802 -118.236588 310 5980ft 184kts
10-Sep-18 12:24 33.824622 -118.281901 309 5980ft 183kts
10-Sep-18 12:25 33.857392 -118.327209 309 5981ft 182kts
10-Sep-18 12:26 33.889475 -118.371597 309 5980ft 183kts
10-Sep-18 12:27 33.920625 -118.414753 309 5981ft 182kts
10-Sep-18 12:28 33.944643 -118.467051 290 5980ft 180kts
10-Sep-18 12:29 33.962380 -118.523443 289 5988ft 180kts
10-Sep-18 12:30 33.980258 -118.579721 289 5981ft 181kts
10-Sep-18 12:31 33.995179 -118.626512 290 5977ft 180kts
10-Sep-18 12:32 34.012826 -118.682312 289 5953ft 188kts
10-Sep-18 12:33 34.035057 -118.752407 290 5955ft 195kts
10-Sep-18 12:34 34.049949 -118.803798 287 5965ft 196kts
10-Sep-18 12:35 34.065694 -118.863820 285 5983ft 190kts
10-Sep-18 12:36 34.083893 -118.932615 285 5978ft 184kts
10-Sep-18 12:37 34.099386 -118.990803 285 5976ft 183kts
10-Sep-18 12:38 34.111558 -119.036165 286 5982ft 182kts
10-Sep-18 12:39 34.132477 -119.090856 295 5979ft 182kts
10-Sep-18 12:40 34.155309 -119.145445 295 5977ft 182kts
10-Sep-18 12:41 34.178069 -119.199928 293 5975ft 182kts
10-Sep-18 12:42 34.200649 -119.253752 293 5962ft 179kts
10-Sep-18 12:43 34.222971 -119.307042 295 5970ft 179kts
10-Sep-18 12:44 34.244851 -119.359885 294 5975ft 178kts
10-Sep-18 12:45 34.267220 -119.413403 294 5814ft 185kts
10-Sep-18 12:46 34.290936 -119.470363 294 4706ft 193kts
10-Sep-18 12:47 34.314448 -119.528015 291 3751ft 191kts
10-Sep-18 12:48 34.335378 -119.582344 293 2651ft 169kts
10-Sep-18 12:49 34.354004 -119.630155 298 2035ft 138kts
10-Sep-18 12:50 34.370025 -119.670856 291 2141ft 159kts
10-Sep-18 12:51 34.389993 -119.723049 291 2053ft 161kts
10-Sep-18 12:52 34.405405 -119.763392 297 1689ft 91kts
10-Sep-18 12:53 34.419270 -119.793275 298 1223ft 108kts
10-Sep-18 12:54 34.428077 -119.823679 268 267ft 93kts
10-Sep-18 12:55 34.427872 -119.845945 303 16ft 17kts
10-Sep-18 12:56 34.428978 -119.844041 61 16ft 22kts
10-Sep-18 12:57 34.431138 -119.838284 69 16ft 14kts
10-Sep-18 12:58 34.432185 -119.837974 71 16ft 0kts
10-Sep-18 12:59 34.432185 -119.837974 71 16ft 0kts
10-Sep-18 13:00 34.432185 -119.837974 71 16ft 0kts
10-Sep-18 13:01 34.432185 -119.837974 71 16ft 0kts
10-Sep-18 13:02 34.432185 -119.837974 71 16ft 0kts

Navigation Log

Ident Type
1. KSNA Airport
2. SLI Navaid
3. POPPR Fix
4. HERMO Fix
5. LAX Navaid
6. SADDE Fix
7. VTU Navaid
8. KWANG Fix
9. KSBA Airport